Time;durP1;ratioP1;P1;durP2;ratioP2;P2;SDS_P1;SDS_P2;PMS_P1;PMS_P2;Temp;Humidity;BMP_temperature;BMP_pressure;BME280_temperature;BME280_humidity;BME280_pressure;Samples;Min_cycle;Max_cycle;Signal;HPM_P1;HPM_P2
2023/05/09 00:00:10;;;;;;;;;18.00;15.50;;;;;15.07;78.07;100094.31;5116215;28;8816;-59
2023/05/09 00:02:38;;;;;;;;;12.25;11.25;;;;;15.04;78.28;100091.09;5115309;28;8840;-58
2023/05/09 00:05:06;;;;;;;;;15.00;13.00;;;;;15.01;79.04;100088.69;5116363;28;9010;-60
2023/05/09 00:07:34;;;;;;;;;18.25;18.00;;;;;14.97;78.90;100088.16;5116309;28;8950;-61
2023/05/09 00:10:02;;;;;;;;;16.50;14.50;;;;;14.93;78.69;100085.88;5116613;28;8867;-58
2023/05/09 00:12:30;;;;;;;;;12.00;10.00;;;;;14.88;78.74;100089.00;5115987;28;8920;-58
2023/05/09 00:14:58;;;;;;;;;14.00;12.75;;;;;14.85;78.96;100081.25;5115976;28;8816;-60
2023/05/09 00:17:27;;;;;;;;;16.00;13.00;;;;;14.81;78.78;100079.84;5116249;28;8828;-60
2023/05/09 00:19:55;;;;;;;;;10.50;10.50;;;;;14.79;79.06;100081.00;5115948;28;8965;-60
2023/05/09 00:22:23;;;;;;;;;18.33;16.33;;;;;14.75;79.41;100079.59;5116189;28;8820;-59
2023/05/09 00:24:51;;;;;;;;;18.75;16.00;;;;;14.72;79.23;100071.84;5115783;28;8816;-59
2023/05/09 00:27:18;;;;;;;;;14.00;13.00;;;;;14.70;79.42;100066.63;5116225;28;8820;-60
2023/05/09 00:29:46;;;;;;;;;13.50;10.50;;;;;14.69;79.29;100066.75;5116338;28;8855;-59
2023/05/09 00:32:14;;;;;;;;;15.25;13.50;;;;;14.68;79.21;100060.56;5120143;28;9561;-59
2023/05/09 00:34:42;;;;;;;;;17.00;16.00;;;;;14.69;78.91;100067.63;5119724;28;8835;-59
2023/05/09 00:37:09;;;;;;;;;13.75;9.75;;;;;14.69;78.75;100061.41;5119806;28;8832;-59
2023/05/09 00:39:37;;;;;;;;;16.25;14.00;;;;;14.71;79.30;100052.22;5119726;28;9466;-60
2023/05/09 00:42:05;;;;;;;;;12.75;8.00;;;;;14.74;79.02;100048.41;5119685;28;8828;-60
2023/05/09 00:44:33;;;;;;;;;16.00;14.00;;;;;14.75;79.15;100048.28;5120403;28;8828;-59
2023/05/09 00:47:01;;;;;;;;;17.00;16.00;;;;;14.75;78.29;100039.38;5119342;28;8832;-61
2023/05/09 00:49:29;;;;;;;;;18.75;17.50;;;;;14.74;79.16;100037.69;5119425;28;8924;-58
2023/05/09 00:51:57;;;;;;;;;19.50;18.00;;;;;14.70;78.88;100036.28;5119331;28;8816;-60
2023/05/09 00:54:25;;;;;;;;;12.75;12.75;;;;;14.65;78.72;100033.22;5119363;28;8830;-59
2023/05/09 00:56:53;;;;;;;;;14.25;13.50;;;;;14.63;78.85;100029.84;5119433;28;8820;-59
2023/05/09 00:59:21;;;;;;;;;7.50;5.50;;;;;14.60;79.37;100016.72;5119041;28;8816;-58
2023/05/09 01:01:49;;;;;;;;;14.00;12.50;;;;;14.57;79.41;100015.16;5119206;28;8958;-61
2023/05/09 01:04:17;;;;;;;;;12.50;10.50;;;;;14.56;79.67;100012.66;5119349;28;8924;-59
2023/05/09 01:06:44;;;;;;;;;11.25;8.25;;;;;14.55;79.26;100010.94;5118966;28;8826;-59
2023/05/09 01:09:12;;;;;;;;;9.50;9.00;;;;;14.52;79.38;100017.44;5118532;28;8840;-59
2023/05/09 01:11:40;;;;;;;;;17.00;16.00;;;;;14.50;79.56;100011.38;5117532;28;8847;-60
2023/05/09 01:14:08;;;;;;;;;13.75;12.50;;;;;14.50;79.47;100013.22;5117452;28;8820;-60
2023/05/09 01:16:35;;;;;;;;;12.50;12.50;;;;;14.53;79.14;100008.41;5117810;28;8844;-58
2023/05/09 01:19:03;;;;;;;;;15.50;14.50;;;;;14.59;78.40;100010.53;5117983;28;8832;-59
2023/05/09 01:21:31;;;;;;;;;16.00;15.00;;;;;14.63;78.95;100003.03;5117973;28;8824;-59
2023/05/09 01:23:59;;;;;;;;;18.00;16.00;;;;;14.65;79.00;99993.81;5118210;28;8834;-60
2023/05/09 01:26:27;;;;;;;;;18.25;15.25;;;;;14.69;78.74;99987.19;5118359;28;8846;-59
2023/05/09 01:28:54;;;;;;;;;16.50;14.50;;;;;14.71;79.05;99987.06;5118611;28;9505;-59
2023/05/09 01:31:23;;;;;;;;;15.75;13.00;;;;;14.71;79.06;99981.69;5118744;28;8804;-58
2023/05/09 01:33:51;;;;;;;;;21.25;18.75;;;;;14.71;79.04;99984.38;5118693;28;8820;-60
2023/05/09 01:36:18;;;;;;;;;15.00;12.75;;;;;14.69;79.08;99975.63;5118705;28;8832;-61
2023/05/09 01:38:46;;;;;;;;;17.75;16.00;;;;;14.67;78.67;99969.56;5118746;28;8858;-61
2023/05/09 01:41:14;;;;;;;;;13.50;12.25;;;;;14.66;78.80;99959.84;5118096;28;8828;-59
2023/05/09 01:43:41;;;;;;;;;17.25;15.75;;;;;14.66;78.71;99962.53;5118916;28;8808;-61
2023/05/09 01:46:11;;;;;;;;;19.25;17.50;;;;;14.66;79.24;99965.19;5118120;28;8832;-59
2023/05/09 01:48:39;;;;;;;;;12.00;11.75;;;;;14.64;79.38;99965.34;5118353;28;8832;-61
2023/05/09 01:51:07;;;;;;;;;18.00;16.00;;;;;14.64;78.82;99961.84;5118139;28;8859;-60
2023/05/09 01:53:35;;;;;;;;;19.75;17.00;;;;;14.62;78.64;99963.78;5118250;28;8836;-62
2023/05/09 01:56:02;;;;;;;;;21.00;17.50;;;;;14.64;78.59;99959.16;5118450;28;8808;-60
2023/05/09 01:58:30;;;;;;;;;17.25;14.50;;;;;14.67;78.79;99957.03;5118392;28;8812;-61
2023/05/09 02:00:58;;;;;;;;;25.50;21.00;;;;;14.69;78.94;99946.13;5117733;28;8852;-59
2023/05/09 02:03:26;;;;;;;;;23.50;21.00;;;;;14.70;78.90;99951.34;5117816;28;8842;-58
2023/05/09 02:05:53;;;;;;;;;20.25;18.00;;;;;14.73;79.19;99953.72;5118337;28;9003;-59
2023/05/09 02:08:21;;;;;;;;;24.00;22.25;;;;;14.75;78.53;99956.28;5117974;28;8823;-60
2023/05/09 02:10:49;;;;;;;;;17.25;13.00;;;;;14.76;78.97;99952.59;5118084;28;8840;-60
2023/05/09 02:13:17;;;;;;;;;21.50;19.50;;;;;14.77;78.42;99956.94;5117582;28;8854;-61
2023/05/09 02:15:44;;;;;;;;;17.75;17.75;;;;;14.75;78.93;99953.59;5117756;28;9490;-59
2023/05/09 02:18:12;;;;;;;;;18.00;18.00;;;;;14.72;78.79;99946.69;5117720;28;8832;-59
2023/05/09 02:20:40;;;;;;;;;15.75;15.00;;;;;14.70;78.71;99948.66;5117829;28;8840;-61
2023/05/09 02:23:08;;;;;;;;;15.50;15.00;;;;;14.67;79.11;99950.81;5117262;28;8836;-59
2023/05/09 02:25:35;;;;;;;;;18.00;16.00;;;;;14.65;79.32;99950.94;5117618;28;8796;-59
2023/05/09 02:28:03;;;;;;;;;15.50;14.00;;;;;14.65;79.38;99950.94;5117473;28;8831;-60
2023/05/09 02:30:31;;;;;;;;;18.50;17.50;;;;;14.65;79.01;99952.78;5117765;28;8834;-61
2023/05/09 02:32:59;;;;;;;;;14.25;13.00;;;;;14.63;78.74;99938.69;5117474;28;8824;-61
2023/05/09 02:35:27;;;;;;;;;17.50;15.75;;;;;14.62;78.97;99947.72;5117688;28;8952;-61
2023/05/09 02:37:54;;;;;;;;;15.75;13.50;;;;;14.60;78.92;99944.34;5117296;28;8843;-58
2023/05/09 02:40:22;;;;;;;;;24.50;21.50;;;;;14.59;78.60;99943.50;5117241;28;8812;-61
2023/05/09 02:42:50;;;;;;;;;18.25;16.00;;;;;14.59;78.88;99940.84;5117290;28;8831;-61
2023/05/09 02:45:17;;;;;;;;;6.50;5.00;;;;;14.59;79.09;99934.63;5118059;28;8836;-61
2023/05/09 02:47:45;;;;;;;;;21.00;20.00;;;;;14.57;78.81;99948.16;5117506;28;9526;-61
2023/05/09 02:50:13;;;;;;;;;22.25;18.00;;;;;14.52;78.86;99947.78;5117411;28;8832;-61
2023/05/09 02:52:41;;;;;;;;;13.00;12.50;;;;;14.47;79.36;99943.81;5116948;28;8850;-61
2023/05/09 02:55:09;;;;;;;;;19.50;18.75;;;;;14.44;79.24;99949.47;5116876;28;8824;-59
2023/05/09 02:57:36;;;;;;;;;26.50;25.00;;;;;14.39;79.34;99941.03;5116782;28;8832;-59
2023/05/09 03:00:07;;;;;;;;;13.50;12.25;;;;;14.42;79.31;99944.25;5117213;28;8816;-61
2023/05/09 03:02:35;;;;;;;;;15.00;12.00;;;;;14.43;79.53;99937.06;5117279;28;8816;-58
2023/05/09 03:05:03;;;;;;;;;14.00;13.50;;;;;14.45;79.29;99944.00;5116996;28;8828;-60
2023/05/09 03:07:31;;;;;;;;;20.50;19.00;;;;;14.45;79.45;99930.59;5116953;28;8956;-59
2023/05/09 03:09:58;;;;;;;;;19.50;18.25;;;;;14.45;79.10;99930.59;5116710;28;8823;-59
2023/05/09 03:12:26;;;;;;;;;19.00;18.00;;;;;14.46;79.47;99939.44;5116591;28;8823;-61
2023/05/09 03:14:55;;;;;;;;;22.00;18.50;;;;;14.48;79.02;99930.28;5116503;28;9496;-60
2023/05/09 03:17:22;;;;;;;;;20.50;17.00;;;;;14.50;79.48;99924.78;5116203;28;8838;-59
2023/05/09 03:19:50;;;;;;;;;18.75;18.75;;;;;14.50;78.88;99922.09;5116534;28;8847;-60
2023/05/09 03:22:17;;;;;;;;;14.50;12.25;;;;;14.47;79.23;99922.38;5116450;28;8921;-61
2023/05/09 03:24:45;;;;;;;;;26.50;20.50;;;;;14.46;78.99;99926.91;5116235;28;8909;-61
2023/05/09 03:27:13;;;;;;;;;20.50;20.50;;;;;14.46;79.53;99923.38;5116394;28;8828;-61
2023/05/09 03:29:41;;;;;;;;;29.75;24.50;;;;;14.45;78.85;99916.34;5116518;28;8848;-61
2023/05/09 03:32:08;;;;;;;;;19.00;18.50;;;;;14.45;78.89;99917.19;5116396;28;8808;-61
2023/05/09 03:34:36;;;;;;;;;22.50;21.75;;;;;14.46;79.28;99923.38;5116132;28;8944;-60
2023/05/09 03:37:04;;;;;;;;;19.75;17.75;;;;;14.45;79.56;99911.84;5115514;28;8816;-61
2023/05/09 03:39:31;;;;;;;;;24.00;21.25;;;;;14.46;79.28;99909.97;5115732;28;8847;-61
2023/05/09 03:41:59;;;;;;;;;26.00;25.00;;;;;14.45;79.03;99909.16;5115405;28;8843;-60
2023/05/09 03:44:27;;;;;;;;;24.25;22.00;;;;;14.45;78.64;99910.97;5117203;28;8824;-60
2023/05/09 03:46:54;;;;;;;;;21.50;19.00;;;;;14.43;79.50;99905.75;5115339;28;8824;-61
2023/05/09 03:49:22;;;;;;;;;22.50;21.00;;;;;14.46;78.27;99905.47;5115729;28;8816;-59
2023/05/09 03:51:50;;;;;;;;;10.00;10.00;;;;;14.50;78.68;99903.34;5115798;28;8839;-59
2023/05/09 03:54:17;;;;;;;;;19.00;17.00;;;;;14.54;79.08;99902.03;5115593;28;8854;-61
2023/05/09 03:56:45;;;;;;;;;20.50;19.25;;;;;14.59;78.91;99897.09;5115655;28;8920;-60
2023/05/09 03:59:13;;;;;;;;;25.00;22.00;;;;;14.64;78.13;99897.50;5115583;28;8846;-61
2023/05/09 04:01:41;;;;;;;;;12.75;10.00;;;;;14.70;78.59;99896.88;5115566;28;8916;-61
2023/05/09 04:04:09;;;;;;;;;23.00;20.75;;;;;14.76;78.63;99896.28;5115799;28;8966;-59
2023/05/09 04:06:37;;;;;;;;;17.00;14.50;;;;;14.81;78.67;99896.69;5119264;28;8831;-61
2023/05/09 04:09:04;;;;;;;;;24.50;20.50;;;;;14.87;77.93;99888.06;5120027;28;8816;-60
2023/05/09 04:11:32;;;;;;;;;27.25;24.00;;;;;14.94;78.23;99889.16;5119818;28;8828;-59
2023/05/09 04:14:00;;;;;;;;;26.00;24.50;;;;;15.00;77.67;99886.69;5120106;28;8832;-61
2023/05/09 04:16:28;;;;;;;;;23.25;20.00;;;;;15.08;77.50;99888.59;5119858;28;8876;-59
2023/05/09 04:18:55;;;;;;;;;23.75;22.50;;;;;15.14;77.78;99885.31;5119719;28;9616;-61
2023/05/09 04:21:23;;;;;;;;;23.25;21.25;;;;;15.20;77.36;99890.09;5119764;28;8857;-60
2023/05/09 04:23:51;;;;;;;;;23.00;21.25;;;;;15.26;77.74;99892.16;5119833;28;8842;-59
2023/05/09 04:26:21;;;;;;;;;24.25;22.75;;;;;15.33;77.44;99887.91;5119574;28;8921;-61
2023/05/09 04:28:49;;;;;;;;;20.00;20.00;;;;;15.41;76.99;99893.34;5119366;28;8844;-61
2023/05/09 04:31:18;;;;;;;;;22.75;20.00;;;;;15.46;77.72;99880.31;5119185;28;8871;-59
2023/05/09 04:33:45;;;;;;;;;26.25;22.50;;;;;15.51;76.62;99878.00;5119175;28;8827;-59
2023/05/09 04:36:13;;;;;;;;;25.25;23.50;;;;;15.55;77.00;99879.38;5119290;28;8933;-59
2023/05/09 04:38:41;;;;;;;;;31.00;27.00;;;;;15.60;76.96;99877.91;5118918;28;8843;-58
2023/05/09 04:41:09;;;;;;;;;14.75;12.00;;;;;15.67;77.01;99876.31;5119354;28;8835;-60
2023/05/09 04:43:37;;;;;;;;;33.00;30.00;;;;;15.73;76.68;99866.78;5119581;28;8828;-61
2023/05/09 04:46:07;;;;;;;;;23.25;21.25;;;;;15.79;76.30;99876.88;5119269;28;8852;-59
2023/05/09 04:48:35;;;;;;;;;24.00;22.00;;;;;15.82;76.71;99877.44;5119236;28;8925;-59
2023/05/09 04:51:03;;;;;;;;;30.25;27.75;;;;;15.86;76.62;99869.91;5119291;28;8828;-58
2023/05/09 04:53:31;;;;;;;;;28.00;23.50;;;;;15.88;76.42;99868.75;5119328;28;9478;-59
2023/05/09 04:55:58;;;;;;;;;19.50;14.75;;;;;15.93;76.37;99865.59;5118862;28;8855;-59
2023/05/09 04:58:26;;;;;;;;;21.50;18.50;;;;;15.98;76.14;99865.94;5118646;28;9490;-59
2023/05/09 05:00:54;;;;;;;;;16.50;12.75;;;;;16.01;76.68;99846.84;5118766;28;8832;-58
2023/05/09 05:03:21;;;;;;;;;24.00;21.25;;;;;16.04;76.05;99849.19;5119227;28;9517;-58
2023/05/09 05:05:49;;;;;;;;;24.50;21.00;;;;;16.09;76.59;99852.25;5118982;28;8848;-58
2023/05/09 05:08:17;;;;;;;;;20.67;20.33;;;;;16.12;76.52;99851.91;5118331;28;8948;-59
2023/05/09 05:10:46;;;;;;;;;21.00;19.00;;;;;16.17;76.21;99850.47;5118295;28;8870;-59
2023/05/09 05:13:13;;;;;;;;;23.50;21.25;;;;;16.22;75.66;99849.97;5118146;28;8831;-60
2023/05/09 05:15:41;;;;;;;;;24.50;21.25;;;;;16.26;75.64;99846.81;5117620;28;8900;-59
2023/05/09 05:18:09;;;;;;;;;27.25;24.50;;;;;16.30;76.26;99840.94;5117223;28;9522;-59
2023/05/09 05:20:37;;;;;;;;;27.25;22.50;;;;;16.32;75.72;99830.06;5117690;28;8844;-60
2023/05/09 05:23:05;;;;;;;;;27.00;24.50;;;;;16.36;75.96;99834.09;5118091;28;8827;-60
2023/05/09 05:25:32;;;;;;;;;27.50;23.50;;;;;16.41;75.77;99837.19;5118117;28;8976;-58
2023/05/09 05:28:02;;;;;;;;;24.50;21.25;;;;;16.46;75.80;99834.81;5117708;28;8870;-59
2023/05/09 05:30:29;;;;;;;;;27.50;23.00;;;;;16.50;75.58;99828.13;5117170;28;8856;-58
2023/05/09 05:33:00;;;;;;;;;23.50;21.25;;;;;16.55;75.65;99817.75;5117259;28;8874;-59
2023/05/09 05:35:28;;;;;;;;;21.25;18.25;;;;;16.59;75.19;99816.41;5117576;28;9555;-58
2023/05/09 05:37:56;;;;;;;;;19.25;15.75;;;;;16.63;75.65;99821.28;5117289;28;8819;-59
2023/05/09 05:40:23;;;;;;;;;19.25;14.00;;;;;16.67;75.56;99817.28;5117161;28;8959;-59
2023/05/09 05:42:51;;;;;;;;;19.00;15.25;;;;;16.72;75.58;99814.09;5117128;28;8828;-59
2023/05/09 05:45:19;;;;;;;;;24.00;21.50;;;;;16.78;75.35;99818.81;5118288;28;8827;-59
2023/05/09 05:47:47;;;;;;;;;21.25;20.50;;;;;16.82;75.31;99810.25;5116603;28;8828;-61
2023/05/09 05:50:15;;;;;;;;;25.00;22.75;;;;;16.86;75.28;99814.28;5116262;28;8827;-60
2023/05/09 05:52:43;;;;;;;;;17.20;15.40;;;;;16.92;75.08;99810.09;5114923;28;8844;-58
2023/05/09 05:55:11;;;;;;;;;18.00;15.50;;;;;16.97;74.86;99811.28;5113756;28;8824;-60
2023/05/09 05:57:39;;;;;;;;;21.00;18.75;;;;;17.03;74.81;99805.25;5114079;28;8808;-60
2023/05/09 06:00:09;;;;;;;;;14.75;13.50;;;;;17.10;74.59;99798.16;5114618;28;8846;-58
2023/05/09 06:02:37;;;;;;;;;18.50;16.50;;;;;17.17;74.91;99799.19;5112832;28;8876;-59
2023/05/09 06:05:06;;;;;;;;;25.75;22.75;;;;;17.25;74.73;99801.06;5113140;28;8874;-59
2023/05/09 06:07:34;;;;;;;;;22.50;19.50;;;;;17.30;74.52;99801.41;5112003;28;8982;-59
2023/05/09 06:10:01;;;;;;;;;18.40;18.40;;;;;17.36;74.24;99804.28;5112552;28;8836;-59
2023/05/09 06:12:30;;;;;;;;;17.20;16.40;;;;;17.44;74.44;99806.97;5113034;28;8851;-58
2023/05/09 06:14:57;;;;;;;;;25.80;23.20;;;;;17.51;73.88;99799.91;5113757;28;8828;-58
2023/05/09 06:17:25;;;;;;;;;24.80;22.00;;;;;17.56;73.98;99797.56;5113943;28;8843;-60
2023/05/09 06:19:54;;;;;;;;;25.50;23.00;;;;;17.61;74.12;99787.09;5114576;28;8832;-60
2023/05/09 06:22:22;;;;;;;;;20.40;16.80;;;;;17.65;74.13;99791.16;5114808;28;8862;-59
2023/05/09 06:24:49;;;;;;;;;16.80;16.80;;;;;17.68;73.97;99782.72;5114932;28;8832;-58
2023/05/09 06:27:17;;;;;;;;;18.60;18.60;;;;;17.73;73.94;99785.75;5114730;28;8836;-58
2023/05/09 06:29:45;;;;;;;;;19.80;16.00;;;;;17.77;73.51;99786.25;5114276;28;8847;-58
2023/05/09 06:32:13;;;;;;;;;22.00;20.40;;;;;17.79;73.89;99779.69;5114308;28;8855;-60
2023/05/09 06:34:41;;;;;;;;;18.80;18.00;;;;;17.84;73.69;99785.38;5115016;28;9320;-61
2023/05/09 06:37:09;;;;;;;;;28.20;24.40;;;;;17.88;73.80;99783.19;5114646;28;8970;-60
2023/05/09 06:39:37;;;;;;;;;19.80;18.00;;;;;17.89;73.75;99774.94;5114438;28;9551;-60
2023/05/09 06:42:05;;;;;;;;;24.00;20.80;;;;;17.89;73.63;99777.63;5113551;28;9613;-59
2023/05/09 06:44:33;;;;;;;;;17.75;16.75;;;;;17.89;73.88;99774.06;5115192;28;8828;-61
2023/05/09 06:47:01;;;;;;;;;25.20;20.80;;;;;17.91;74.25;99772.91;5114070;28;8868;-61
2023/05/09 06:49:29;;;;;;;;;19.40;18.00;;;;;17.94;74.16;99766.34;5114262;28;8843;-60
2023/05/09 06:51:56;;;;;;;;;28.00;25.00;;;;;17.97;73.64;99768.66;5114592;28;8831;-59
2023/05/09 06:54:26;;;;;;;;;28.50;26.50;;;;;17.98;73.56;99763.13;5114848;28;8835;-61
2023/05/09 06:56:54;;;;;;;;;16.00;15.00;;;;;18.01;73.86;99765.47;5115012;28;8858;-59
2023/05/09 06:59:22;;;;;;;;;24.75;22.00;;;;;18.00;74.07;99758.38;5114890;28;8824;-61
2023/05/09 07:01:49;;;;;;;;;24.20;21.20;;;;;18.01;73.73;99745.75;5114639;28;8971;-60
2023/05/09 07:04:19;;;;;;;;;24.25;20.00;;;;;18.03;73.89;99758.06;5115061;28;8836;-61
2023/05/09 07:06:48;;;;;;;;;24.20;21.00;;;;;18.08;73.41;99747.56;5114949;28;8844;-60
2023/05/09 07:09:19;;;;;;;;;22.00;20.40;;;;;18.16;73.77;99747.56;5114150;28;8940;-59
2023/05/09 07:11:47;;;;;;;;;19.60;16.40;;;;;18.27;73.56;99744.47;5114411;28;8832;-59
2023/05/09 07:14:14;;;;;;;;;23.20;22.00;;;;;18.38;73.22;99733.31;5114700;28;8912;-61
2023/05/09 07:16:43;;;;;;;;;24.20;21.80;;;;;18.49;72.69;99727.53;5113481;28;9556;-61
2023/05/09 07:19:10;;;;;;;;;25.40;22.40;;;;;18.58;72.66;99728.34;5112385;28;9571;-60
2023/05/09 07:21:38;;;;;;;;;16.60;14.40;;;;;18.65;72.61;99727.44;5112964;28;8848;-60
2023/05/09 07:24:06;;;;;;;;;22.20;21.20;;;;;18.73;72.61;99721.97;5112387;28;8974;-60
2023/05/09 07:26:34;;;;;;;;;20.40;18.80;;;;;18.77;72.66;99720.63;5111244;28;8858;-59
2023/05/09 07:29:02;;;;;;;;;20.40;18.80;;;;;18.80;72.72;99722.94;5111086;28;8871;-59
2023/05/09 07:31:30;;;;;;;;;22.00;21.40;;;;;18.88;72.35;99720.19;5111232;28;8847;-59
2023/05/09 07:33:58;;;;;;;;;22.20;18.40;;;;;18.87;72.83;99717.66;5112138;28;8889;-59
2023/05/09 07:36:26;;;;;;;;;25.00;20.20;;;;;18.86;72.72;99708.75;5111818;28;8839;-59
2023/05/09 07:38:54;;;;;;;;;21.40;20.20;;;;;18.83;72.70;99706.38;5112131;28;8966;-60
2023/05/09 07:41:22;;;;;;;;;22.80;19.00;;;;;18.81;72.95;99708.44;5112599;28;8932;-60
2023/05/09 07:43:50;;;;;;;;;22.80;20.00;;;;;18.78;72.93;99702.56;5114761;28;8990;-59
2023/05/09 07:46:18;;;;;;;;;20.40;19.80;;;;;18.78;73.01;99698.00;5114312;28;8843;-58
2023/05/09 07:48:45;;;;;;;;;23.40;22.80;;;;;18.81;72.95;99697.63;5113203;28;8844;-60
2023/05/09 07:51:13;;;;;;;;;17.20;16.00;;;;;18.79;72.90;99690.75;5113334;28;8851;-59
2023/05/09 07:53:41;;;;;;;;;24.60;21.60;;;;;18.78;72.67;99692.63;5113907;28;8823;-61
2023/05/09 07:56:09;;;;;;;;;24.40;21.40;;;;;18.84;72.81;99696.44;5114153;28;8843;-60
2023/05/09 07:58:37;;;;;;;;;20.20;16.80;;;;;18.87;73.08;99685.28;5113941;28;9752;-59
2023/05/09 08:01:05;;;;;;;;;22.00;19.00;;;;;18.91;72.83;99697.41;5114224;28;8936;-59
2023/05/09 08:03:33;;;;;;;;;17.40;16.00;;;;;18.91;73.02;99690.13;5114042;28;8836;-60
2023/05/09 08:06:01;;;;;;;;;21.00;18.80;;;;;18.89;72.43;99678.69;5114364;28;8824;-59
2023/05/09 08:08:29;;;;;;;;;18.40;15.40;;;;;18.92;72.60;99685.59;5113707;28;8839;-59
2023/05/09 08:10:57;;;;;;;;;20.20;16.80;;;;;18.92;72.81;99672.94;5114013;28;8816;-59
2023/05/09 08:13:25;;;;;;;;;6.80;6.60;;;;;18.91;72.96;99670.41;5113427;28;8839;-60
2023/05/09 08:15:53;;;;;;;;;16.60;15.80;;;;;18.92;72.70;99672.94;5112504;28;8832;-59
2023/05/09 08:18:21;;;;;;;;;20.20;17.20;;;;;18.94;72.93;99665.50;5113315;28;8824;-58
2023/05/09 08:20:49;;;;;;;;;17.80;16.80;;;;;18.96;72.47;99658.03;5113859;28;8847;-59
2023/05/09 08:23:18;;;;;;;;;13.20;11.80;;;;;18.97;72.75;99657.03;5113913;28;9519;-60
2023/05/09 08:25:46;;;;;;;;;21.20;17.60;;;;;18.96;72.65;99657.22;5113891;28;8820;-59
2023/05/09 08:28:15;;;;;;;;;20.60;18.00;;;;;18.95;72.55;99656.38;5114409;28;8831;-60
2023/05/09 08:30:43;;;;;;;;;20.40;16.60;;;;;18.89;73.13;99659.78;5113943;28;8844;-59
2023/05/09 08:33:12;;;;;;;;;18.20;16.60;;;;;18.80;73.14;99652.78;5114489;28;8836;-60
2023/05/09 08:35:40;;;;;;;;;11.60;11.40;;;;;18.74;73.24;99653.50;5114216;28;8852;-59
2023/05/09 08:38:08;;;;;;;;;24.00;22.80;;;;;18.67;73.14;99649.84;5114037;28;8860;-59
2023/05/09 08:40:36;;;;;;;;;22.00;18.20;;;;;18.63;73.58;99659.34;5114182;28;8827;-60
2023/05/09 08:43:03;;;;;;;;;17.40;15.60;;;;;18.63;73.32;99640.47;5113957;28;8848;-59
2023/05/09 08:45:33;;;;;;;;;21.40;18.80;;;;;18.67;73.21;99644.47;5114991;28;8836;-59
2023/05/09 08:48:01;;;;;;;;;16.40;14.20;;;;;18.69;73.20;99637.03;5114605;28;9579;-58
2023/05/09 08:50:29;;;;;;;;;23.80;21.60;;;;;18.72;73.56;99642.06;5113659;28;8848;-58
2023/05/09 08:52:57;;;;;;;;;7.00;7.00;;;;;18.77;72.77;99636.13;5117263;28;8864;-58
2023/05/09 08:55:24;;;;;;;;;22.80;18.00;;;;;18.78;73.05;99635.09;5117424;28;8847;-58
2023/05/09 08:57:53;;;;;;;;;14.80;14.00;;;;;18.76;73.14;99635.28;5116925;28;8823;-58
2023/05/09 09:00:21;;;;;;;;;21.60;21.00;;;;;18.74;73.37;99640.03;5116619;28;8836;-59
2023/05/09 09:02:49;;;;;;;;;19.00;14.80;;;;;18.72;73.10;99636.66;5116868;28;8832;-59
2023/05/09 09:05:17;;;;;;;;;17.40;15.20;;;;;18.71;73.08;99629.59;5115698;28;9181;-58
2023/05/09 09:08:05;;;;;;;;;18.00;16.00;;;;;18.72;73.12;99633.97;5116678;28;8836;-58
2023/05/09 09:10:34;;;;;;;;;19.00;19.00;;;;;18.74;73.33;99631.91;5116819;28;8854;-59
2023/05/09 09:13:03;;;;;;;;;22.20;19.80;;;;;18.77;73.47;99626.19;5115993;28;8890;-59
2023/05/09 09:15:31;;;;;;;;;20.40;18.60;;;;;18.79;72.89;99625.97;5117080;28;8855;-59
2023/05/09 09:17:59;;;;;;;;;24.80;20.80;;;;;18.79;72.76;99624.13;5116725;28;8843;-59
2023/05/09 09:20:27;;;;;;;;;21.20;19.00;;;;;18.81;73.06;99623.97;5116324;28;8832;-59
2023/05/09 09:22:55;;;;;;;;;21.20;19.20;;;;;18.84;72.74;99613.66;5116260;28;8862;-59
2023/05/09 09:25:23;;;;;;;;;13.80;13.80;;;;;18.88;72.43;99620.34;5115890;28;8852;-59
2023/05/09 09:27:51;;;;;;;;;22.80;21.40;;;;;18.98;72.22;99612.00;5116329;28;8824;-59
2023/05/09 09:30:20;;;;;;;;;20.20;17.20;;;;;19.15;72.17;99608.94;5116560;28;8843;-59
2023/05/09 09:32:48;;;;;;;;;18.40;17.00;;;;;19.33;71.47;99605.91;5116674;28;8848;-59
2023/05/09 09:35:17;;;;;;;;;21.40;20.00;;;;;19.54;71.25;99593.34;5116738;28;8874;-60
2023/05/09 09:37:44;;;;;;;;;20.00;19.00;;;;;19.79;70.81;99597.41;5116720;28;8831;-59
2023/05/09 09:40:13;;;;;;;;;16.40;15.20;;;;;19.98;70.16;99579.75;5115746;28;8954;-58
2023/05/09 09:42:41;;;;;;;;;18.60;14.60;;;;;20.14;70.04;99585.81;5115906;28;8913;-58
2023/05/09 09:45:10;;;;;;;;;19.80;19.80;;;;;20.31;69.74;99589.94;5116400;28;8936;-58
2023/05/09 09:47:38;;;;;;;;;21.00;20.20;;;;;20.41;69.20;99579.63;5114576;28;8828;-60
2023/05/09 09:50:06;;;;;;;;;17.00;16.20;;;;;20.37;68.59;99580.19;5114415;28;8828;-60
2023/05/09 09:52:34;;;;;;;;;20.20;17.60;;;;;20.33;69.34;99571.63;5115491;28;8827;-60
2023/05/09 09:55:02;;;;;;;;;17.60;14.80;;;;;20.25;68.93;99571.75;5115661;28;8843;-58
2023/05/09 09:57:31;;;;;;;;;18.00;17.20;;;;;20.17;69.09;99568.38;5115304;28;8828;-59
2023/05/09 09:59:59;;;;;;;;;14.40;14.00;;;;;20.24;69.62;99569.28;5116101;28;8832;-60
2023/05/09 10:02:27;;;;;;;;;13.60;12.40;;;;;20.56;68.74;99560.63;5115390;28;8839;-58
2023/05/09 10:04:55;;;;;;;;;13.80;13.40;;;;;20.85;67.83;99554.00;5115939;28;8864;-60
2023/05/09 10:07:23;;;;;;;;;10.40;9.60;;;;;21.12;66.61;99553.19;5115954;28;8870;-60
2023/05/09 10:09:51;;;;;;;;;11.80;11.00;;;;;21.45;66.67;99548.81;5115786;28;8978;-58
2023/05/09 10:12:22;;;;;;;;;16.00;15.00;;;;;21.91;65.76;99543.59;5115787;28;8839;-59
2023/05/09 10:14:50;;;;;;;;;12.00;9.40;;;;;22.22;64.34;99541.16;5115996;28;8934;-59
2023/05/09 10:17:17;;;;;;;;;21.20;18.60;;;;;22.35;64.25;99541.19;5115692;28;8926;-60
2023/05/09 10:19:46;;;;;;;;;18.40;16.20;;;;;22.21;64.49;99540.34;5115376;28;8958;-59
2023/05/09 10:22:14;;;;;;;;;16.00;13.20;;;;;22.06;64.70;99533.41;5115723;28;8839;-60
2023/05/09 10:24:42;;;;;;;;;13.00;11.40;;;;;21.90;65.27;99528.38;5114665;28;8848;-59
2023/05/09 10:27:10;;;;;;;;;11.60;10.40;;;;;21.71;65.80;99527.25;5114011;28;8847;-59
2023/05/09 10:29:38;;;;;;;;;11.80;11.40;;;;;21.49;66.29;99527.56;5113709;28;8981;-60
2023/05/09 10:32:07;;;;;;;;;12.60;11.20;;;;;21.32;66.10;99523.50;5113084;28;9057;-59
2023/05/09 10:34:35;;;;;;;;;11.00;9.80;;;;;21.37;66.57;99513.75;5113209;28;8928;-58
2023/05/09 10:37:03;;;;;;;;;8.60;8.60;;;;;21.55;65.47;99510.50;5113380;28;8966;-58
2023/05/09 10:39:31;;;;;;;;;13.60;12.20;;;;;21.86;65.19;99498.09;5114751;28;8828;-59
2023/05/09 10:41:59;;;;;;;;;11.40;10.20;;;;;22.22;63.80;99505.88;5114695;28;8973;-60
2023/05/09 10:44:27;;;;;;;;;15.40;12.80;;;;;22.37;63.30;99501.97;5115915;28;8868;-61
2023/05/09 10:46:55;;;;;;;;;12.80;12.00;;;;;22.44;63.13;99499.25;5115540;28;8970;-59
2023/05/09 10:49:23;;;;;;;;;12.20;9.60;;;;;22.48;62.85;99489.69;5116170;28;8840;-63
2023/05/09 10:51:51;;;;;;;;;14.20;11.60;;;;;22.71;62.56;99498.22;5115584;28;8840;-59
2023/05/09 10:54:19;;;;;;;;;11.80;10.40;;;;;22.67;62.02;99494.25;5114812;28;8820;-60
2023/05/09 10:56:48;;;;;;;;;13.40;13.00;;;;;22.92;61.87;99484.41;5115142;28;8870;-61
2023/05/09 10:59:16;;;;;;;;;18.40;15.80;;;;;23.04;61.23;99490.84;5114141;28;8843;-58
2023/05/09 11:01:45;;;;;;;;;14.40;13.00;;;;;23.21;61.20;99479.34;5113888;28;9126;-58
2023/05/09 11:04:13;;;;;;;;;12.80;11.20;;;;;23.19;61.03;99476.03;5114080;28;8858;-59
2023/05/09 11:06:41;;;;;;;;;9.00;9.00;;;;;22.98;61.27;99481.69;5113701;28;8839;-60
2023/05/09 11:09:09;;;;;;;;;9.00;8.00;;;;;22.80;62.12;99470.66;5112296;28;8852;-58
2023/05/09 11:11:37;;;;;;;;;9.80;9.80;;;;;22.62;62.14;99464.19;5112923;28;8843;-58
2023/05/09 11:14:06;;;;;;;;;10.80;9.80;;;;;22.60;62.42;99477.97;5113015;28;8832;-59
2023/05/09 11:16:34;;;;;;;;;11.20;10.20;;;;;22.50;62.53;99463.16;5112487;28;8843;-58
2023/05/09 11:19:04;;;;;;;;;12.80;12.60;;;;;22.39;62.45;99461.88;5113391;28;8879;-58
2023/05/09 11:21:33;;;;;;;;;13.40;11.60;;;;;22.28;62.66;99457.06;5111996;28;8952;-59
2023/05/09 11:24:01;;;;;;;;;12.40;11.80;;;;;22.14;63.20;99449.97;5112505;28;9522;-58
2023/05/09 11:26:30;;;;;;;;;14.60;14.00;;;;;22.21;63.22;99449.97;5112073;28;8824;-58